Aviation Digital Data Service (ADDS)

Output produced by METARs form (2357 UTC 23 October 2019)
found at http://www.aviationweather.gov/metar/data/
 
METAR text: VOBL 232330Z 25007KT 6000 FEW010 SCT012 21/21 Q1013 NOSIG
Conditions at: VOBL (BENGALURU , IN) observed 2330 UTC 23 October 2019
Temperature: 21.0°C (70°F)
Dewpoint: 21.0°C (70°F) [RH = 100%]
Pressure (altimeter): 29.91 inches Hg (1013.0 mb)
Winds: from the WSW (250 degrees) at 8 MPH (7 knots; 3.6 m/s)
Visibility: 4 miles ( 6 km)
Ceiling: at least 12,000 feet AGL
Clouds: few clouds at 1000 feet AGL
scattered clouds at 1200 feet AGL
Weather: no significant weather observed at this time

METAR text: VOBL 232300Z 27005KT 6000 SCT012 SCT080 21/21 Q1013 NOSIG
Conditions at: VOBL (BENGALURU , IN) observed 2300 UTC 23 October 2019
Temperature: 21.0°C (70°F)
Dewpoint: 21.0°C (70°F) [RH = 100%]
Pressure (altimeter): 29.91 inches Hg (1013.0 mb)
Winds: from the W (270 degrees) at 6 MPH (5 knots; 2.6 m/s)
Visibility: 4 miles ( 6 km)
Ceiling: at least 12,000 feet AGL
Clouds: scattered clouds at 1200 feet AGL
scattered clouds at 8000 feet AGL
Weather: no significant weather observed at this time

METAR text: VOBL 232230Z 27006KT 6000 SCT012 SCT080 20/20 Q1013 NOSIG
Conditions at: VOBL (BENGALURU , IN) observed 2230 UTC 23 October 2019
Temperature: 20.0°C (68°F)
Dewpoint: 20.0°C (68°F) [RH = 100%]
Pressure (altimeter): 29.91 inches Hg (1013.0 mb)
Winds: from the W (270 degrees) at 7 MPH (6 knots; 3.1 m/s)
Visibility: 4 miles ( 6 km)
Ceiling: at least 12,000 feet AGL
Clouds: scattered clouds at 1200 feet AGL
scattered clouds at 8000 feet AGL
Weather: no significant weather observed at this time

METAR text: VOBL 232200Z 27007KT 6000 SCT012 SCT080 21/21 Q1012 NOSIG
Conditions at: VOBL (BENGALURU , IN) observed 2200 UTC 23 October 2019
Temperature: 21.0°C (70°F)
Dewpoint: 21.0°C (70°F) [RH = 100%]
Pressure (altimeter): 29.88 inches Hg (1012.0 mb)
Winds: from the W (270 degrees) at 8 MPH (7 knots; 3.6 m/s)
Visibility: 4 miles ( 6 km)
Ceiling: at least 12,000 feet AGL
Clouds: scattered clouds at 1200 feet AGL
scattered clouds at 8000 feet AGL
Weather: no significant weather observed at this time

METAR text: VOBL 232130Z 26007KT 6000 SCT012 SCT080 21/21 Q1012 NOSIG
Conditions at: VOBL (BENGALURU , IN) observed 2130 UTC 23 October 2019
Temperature: 21.0°C (70°F)
Dewpoint: 21.0°C (70°F) [RH = 100%]
Pressure (altimeter): 29.88 inches Hg (1012.0 mb)
Winds: from the W (260 degrees) at 8 MPH (7 knots; 3.6 m/s)
Visibility: 4 miles ( 6 km)
Ceiling: at least 12,000 feet AGL
Clouds: scattered clouds at 1200 feet AGL
scattered clouds at 8000 feet AGL
Weather: no significant weather observed at this time

METAR text: VOBL 232100Z 26007KT 6000 SCT012 SCT080 21/21 Q1012 NOSIG
Conditions at: VOBL (BENGALURU , IN) observed 2100 UTC 23 October 2019
Temperature: 21.0°C (70°F)
Dewpoint: 21.0°C (70°F) [RH = 100%]
Pressure (altimeter): 29.88 inches Hg (1012.0 mb)
Winds: from the W (260 degrees) at 8 MPH (7 knots; 3.6 m/s)
Visibility: 4 miles ( 6 km)
Ceiling: at least 12,000 feet AGL
Clouds: scattered clouds at 1200 feet AGL
scattered clouds at 8000 feet AGL
Weather: no significant weather observed at this time

METAR text: VOBL 232030Z 27006KT 6000 SCT012 SCT080 21/21 Q1013 NOSIG
Conditions at: VOBL (BENGALURU , IN) observed 2030 UTC 23 October 2019
Temperature: 21.0°C (70°F)
Dewpoint: 21.0°C (70°F) [RH = 100%]
Pressure (altimeter): 29.91 inches Hg (1013.0 mb)
Winds: from the W (270 degrees) at 7 MPH (6 knots; 3.1 m/s)
Visibility: 4 miles ( 6 km)
Ceiling: at least 12,000 feet AGL
Clouds: scattered clouds at 1200 feet AGL
scattered clouds at 8000 feet AGL
Weather: no significant weather observed at this time

METAR text: VOBL 232000Z 27006KT 6000 SCT012 SCT080 21/21 Q1013 NOSIG
Conditions at: VOBL (BENGALURU , IN) observed 2000 UTC 23 October 2019
Temperature: 21.0°C (70°F)
Dewpoint: 21.0°C (70°F) [RH = 100%]
Pressure (altimeter): 29.91 inches Hg (1013.0 mb)
Winds: from the W (270 degrees) at 7 MPH (6 knots; 3.1 m/s)
Visibility: 4 miles ( 6 km)
Ceiling: at least 12,000 feet AGL
Clouds: scattered clouds at 1200 feet AGL
scattered clouds at 8000 feet AGL
Weather: no significant weather observed at this time

METAR text: VOBL 231930Z 26008KT 6000 SCT012 SCT080 21/21 Q1013 NOSIG
Conditions at: VOBL (BENGALURU , IN) observed 1930 UTC 23 October 2019
Temperature: 21.0°C (70°F)
Dewpoint: 21.0°C (70°F) [RH = 100%]
Pressure (altimeter): 29.91 inches Hg (1013.0 mb)
Winds: from the W (260 degrees) at 9 MPH (8 knots; 4.1 m/s)
Visibility: 4 miles ( 6 km)
Ceiling: at least 12,000 feet AGL
Clouds: scattered clouds at 1200 feet AGL
scattered clouds at 8000 feet AGL
Weather: no significant weather observed at this time

METAR text: VOBL 231900Z 26008KT 6000 SCT012 SCT080 21/21 Q1014 NOSIG
Conditions at: VOBL (BENGALURU , IN) observed 1900 UTC 23 October 2019
Temperature: 21.0°C (70°F)
Dewpoint: 21.0°C (70°F) [RH = 100%]
Pressure (altimeter): 29.94 inches Hg (1014.0 mb)
Winds: from the W (260 degrees) at 9 MPH (8 knots; 4.1 m/s)
Visibility: 4 miles ( 6 km)
Ceiling: at least 12,000 feet AGL
Clouds: scattered clouds at 1200 feet AGL
scattered clouds at 8000 feet AGL
Weather: no significant weather observed at this time

METAR text: VOBL 231830Z 26009KT 6000 SCT012 SCT080 22/22 Q1014 NOSIG
Conditions at: VOBL (BENGALURU , IN) observed 1830 UTC 23 October 2019
Temperature: 22.0°C (72°F)
Dewpoint: 22.0°C (72°F) [RH = 100%]
Pressure (altimeter): 29.94 inches Hg (1014.0 mb)
Winds: from the W (260 degrees) at 10 MPH (9 knots; 4.6 m/s)
Visibility: 4 miles ( 6 km)
Ceiling: at least 12,000 feet AGL
Clouds: scattered clouds at 1200 feet AGL
scattered clouds at 8000 feet AGL
Weather: no significant weather observed at this time

METAR text: VOBL 231800Z 27006KT 6000 SCT012 SCT080 21/21 Q1015 NOSIG
Conditions at: VOBL (BENGALURU , IN) observed 1800 UTC 23 October 2019
Temperature: 21.0°C (70°F)
Dewpoint: 21.0°C (70°F) [RH = 100%]
Pressure (altimeter): 29.97 inches Hg (1015.0 mb)
Winds: from the W (270 degrees) at 7 MPH (6 knots; 3.1 m/s)
Visibility: 4 miles ( 6 km)
Ceiling: at least 12,000 feet AGL
Clouds: scattered clouds at 1200 feet AGL
scattered clouds at 8000 feet AGL
Weather: no significant weather observed at this time

METAR text: VOBL 231730Z 26008KT 6000 SCT012 SCT080 22/22 Q1014 NOSIG
Conditions at: VOBL (BENGALURU , IN) observed 1730 UTC 23 October 2019
Temperature: 22.0°C (72°F)
Dewpoint: 22.0°C (72°F) [RH = 100%]
Pressure (altimeter): 29.94 inches Hg (1014.0 mb)
Winds: from the W (260 degrees) at 9 MPH (8 knots; 4.1 m/s)
Visibility: 4 miles ( 6 km)
Ceiling: at least 12,000 feet AGL
Clouds: scattered clouds at 1200 feet AGL
scattered clouds at 8000 feet AGL
Weather: no significant weather observed at this time

METAR text: VOBL 231700Z 26008KT 6000 SCT012 SCT080 22/22 Q1015 NOSIG
Conditions at: VOBL (BENGALURU , IN) observed 1700 UTC 23 October 2019
Temperature: 22.0°C (72°F)
Dewpoint: 22.0°C (72°F) [RH = 100%]
Pressure (altimeter): 29.97 inches Hg (1015.0 mb)
Winds: from the W (260 degrees) at 9 MPH (8 knots; 4.1 m/s)
Visibility: 4 miles ( 6 km)
Ceiling: at least 12,000 feet AGL
Clouds: scattered clouds at 1200 feet AGL
scattered clouds at 8000 feet AGL
Weather: no significant weather observed at this time

METAR text: VOBL 231630Z 26008KT 6000 SCT012 SCT080 22/22 Q1015 NOSIG
Conditions at: VOBL (BENGALURU , IN) observed 1630 UTC 23 October 2019
Temperature: 22.0°C (72°F)
Dewpoint: 22.0°C (72°F) [RH = 100%]
Pressure (altimeter): 29.97 inches Hg (1015.0 mb)
Winds: from the W (260 degrees) at 9 MPH (8 knots; 4.1 m/s)
Visibility: 4 miles ( 6 km)
Ceiling: at least 12,000 feet AGL
Clouds: scattered clouds at 1200 feet AGL
scattered clouds at 8000 feet AGL
Weather: no significant weather observed at this time

METAR text: VOBL 231600Z 29003KT 6000 SCT012 SCT080 21/21 Q1015 NOSIG
Conditions at: VOBL (BENGALURU , IN) observed 1600 UTC 23 October 2019
Temperature: 21.0°C (70°F)
Dewpoint: 21.0°C (70°F) [RH = 100%]
Pressure (altimeter): 29.97 inches Hg (1015.0 mb)
Winds: from the WNW (290 degrees) at 3 MPH (3 knots; 1.5 m/s)
Visibility: 4 miles ( 6 km)
Ceiling: at least 12,000 feet AGL
Clouds: scattered clouds at 1200 feet AGL
scattered clouds at 8000 feet AGL
Weather: no significant weather observed at this time

METAR text: VOBL 231549Z VRB03KT 6000 SCT012 SCT080 21/21 Q1015 NOSIG
Conditions at: VOBL (BENGALURU , IN) observed 1549 UTC 23 October 2019
Temperature: 21.0°C (70°F)
Dewpoint: 21.0°C (70°F) [RH = 100%]
Pressure (altimeter): 29.97 inches Hg (1015.0 mb)
Winds: variable direction winds at 3 MPH (3 knots; 1.5 m/s)
Visibility: 4 miles ( 6 km)
Ceiling: at least 12,000 feet AGL
Clouds: scattered clouds at 1200 feet AGL
scattered clouds at 8000 feet AGL
Weather: no significant weather observed at this time

METAR text: VOBL 231530Z 28003KT 6000 SCT010 FEW025CB BKN080 21/21 Q1014 NOSIG
Conditions at: VOBL (BENGALURU , IN) observed 1530 UTC 23 October 2019
Temperature: 21.0°C (70°F)
Dewpoint: 21.0°C (70°F) [RH = 100%]
Pressure (altimeter): 29.94 inches Hg (1014.0 mb)
Winds: from the W (280 degrees) at 3 MPH (3 knots; 1.5 m/s)
Visibility: 4 miles ( 6 km)
Ceiling: 8000 feet AGL
Clouds: scattered clouds at 1000 feet AGL
few clouds at 2500 feet AGL
broken clouds at 8000 feet AGL
Weather: no significant weather observed at this time

METAR text: VOBL 231500Z 27003KT 6000 SCT010 FEW025CB BKN080 21/21 Q1014 NOSIG
Conditions at: VOBL (BENGALURU , IN) observed 1500 UTC 23 October 2019
Temperature: 21.0°C (70°F)
Dewpoint: 21.0°C (70°F) [RH = 100%]
Pressure (altimeter): 29.94 inches Hg (1014.0 mb)
Winds: from the W (270 degrees) at 3 MPH (3 knots; 1.5 m/s)
Visibility: 4 miles ( 6 km)
Ceiling: 8000 feet AGL
Clouds: scattered clouds at 1000 feet AGL
few clouds at 2500 feet AGL
broken clouds at 8000 feet AGL
Weather: no significant weather observed at this time

METAR text: VOBL 231430Z VRB01KT 6000 DZ SCT010 FEW025CB BKN080 21/21 Q1014 NOSIG
Conditions at: VOBL (BENGALURU , IN) observed 1430 UTC 23 October 2019
Temperature: 21.0°C (70°F)
Dewpoint: 21.0°C (70°F) [RH = 100%]
Pressure (altimeter): 29.94 inches Hg (1014.0 mb)
Winds: variable direction winds at 1 MPH (1 knots; 0.5 m/s)
Visibility: 4 miles ( 6 km)
Ceiling: 8000 feet AGL
Clouds: scattered clouds at 1000 feet AGL
few clouds at 2500 feet AGL
broken clouds at 8000 feet AGL
Weather: DZ  (moderate drizzle)

METAR text: VOBL 231400Z 28004KT 5000 DZ SCT010 FEW025CB BKN080 21/21 Q1013 NOSIG
Conditions at: VOBL (BENGALURU , IN) observed 1400 UTC 23 October 2019
Temperature: 21.0°C (70°F)
Dewpoint: 21.0°C (70°F) [RH = 100%]
Pressure (altimeter): 29.91 inches Hg (1013.0 mb)
Winds: from the W (280 degrees) at 5 MPH (4 knots; 2.1 m/s)
Visibility: 3 miles ( 5 km)
Ceiling: 8000 feet AGL
Clouds: scattered clouds at 1000 feet AGL
few clouds at 2500 feet AGL
broken clouds at 8000 feet AGL
Weather: DZ  (moderate drizzle)

METAR text: VOBL 231330Z 31004KT 270V340 5000 DZ SCT010 FEW025CB BKN080 21/21 Q1012 NOSIG
Conditions at: VOBL (BENGALURU , IN) observed 1330 UTC 23 October 2019
Temperature: 21.0°C (70°F)
Dewpoint: 21.0°C (70°F) [RH = 100%]
Pressure (altimeter): 29.88 inches Hg (1012.0 mb)
Winds: from the NW (310 degrees) at 5 MPH (4 knots; 2.1 m/s)
Visibility: 3 miles ( 5 km)
Ceiling: 8000 feet AGL
Clouds: scattered clouds at 1000 feet AGL
few clouds at 2500 feet AGL
broken clouds at 8000 feet AGL
Weather: DZ  (moderate drizzle)

METAR text: VOBL 231300Z 33005KT 250V060 3000 -RA BKN006 SCT018 FEW025CB BKN080 21/21 Q1012 TEMPO 2000 TSRA
Conditions at: VOBL (BENGALURU , IN) observed 1300 UTC 23 October 2019
Temperature: 21.0°C (70°F)
Dewpoint: 21.0°C (70°F) [RH = 100%]
Pressure (altimeter): 29.88 inches Hg (1012.0 mb)
Winds: from the NNW (330 degrees) at 6 MPH (5 knots; 2.6 m/s)
Visibility: 1.86 miles (2.99 km)
Ceiling: 600 feet AGL
Clouds: broken clouds at 600 feet AGL
scattered clouds at 1800 feet AGL
few clouds at 2500 feet AGL
broken clouds at 8000 feet AGL
Weather: -RA  (light rain)

METAR text: VOBL 231230Z 31013KT 280V040 4000 DZ SCT008 SCT018 FEW025CB BKN080 22/22 Q1012 TEMPO 3000 RA DZ
Conditions at: VOBL (BENGALURU , IN) observed 1230 UTC 23 October 2019
Temperature: 22.0°C (72°F)
Dewpoint: 22.0°C (72°F) [RH = 100%]
Pressure (altimeter): 29.88 inches Hg (1012.0 mb)
Winds: from the NW (310 degrees) at 15 MPH (13 knots; 6.7 m/s)
Visibility: 2.49 miles (4.01 km)
Ceiling: 8000 feet AGL
Clouds: scattered clouds at 800 feet AGL
scattered clouds at 1800 feet AGL
few clouds at 2500 feet AGL
broken clouds at 8000 feet AGL
Weather: DZ  (moderate drizzle)

METAR text: VOBL 231200Z 28005KT 6000 SCT010 SCT018 26/22 Q1011 NOSIG
Conditions at: VOBL (BENGALURU , IN) observed 1200 UTC 23 October 2019
Temperature: 26.0°C (79°F)
Dewpoint: 22.0°C (72°F) [RH = 79%]
Pressure (altimeter): 29.85 inches Hg (1011.0 mb)
Winds: from the W (280 degrees) at 6 MPH (5 knots; 2.6 m/s)
Visibility: 4 miles ( 6 km)
Ceiling: at least 12,000 feet AGL
Clouds: scattered clouds at 1000 feet AGL
scattered clouds at 1800 feet AGL
Weather: no significant weather observed at this time

METAR text: VOBL 231130Z 22009KT 6000 SCT010 SCT018 25/21 Q1011 NOSIG
Conditions at: VOBL (BENGALURU , IN) observed 1130 UTC 23 October 2019
Temperature: 25.0°C (77°F)
Dewpoint: 21.0°C (70°F) [RH = 79%]
Pressure (altimeter): 29.85 inches Hg (1011.0 mb)
Winds: from the SW (220 degrees) at 10 MPH (9 knots; 4.6 m/s)
Visibility: 4 miles ( 6 km)
Ceiling: at least 12,000 feet AGL
Clouds: scattered clouds at 1000 feet AGL
scattered clouds at 1800 feet AGL
Weather: no significant weather observed at this time

METAR text: VOBL 231100Z 28009KT 6000 SCT010 SCT018 26/21 Q1010 NOSIG
Conditions at: VOBL (BENGALURU , IN) observed 1100 UTC 23 October 2019
Temperature: 26.0°C (79°F)
Dewpoint: 21.0°C (70°F) [RH = 74%]
Pressure (altimeter): 29.82 inches Hg (1010.0 mb)
Winds: from the W (280 degrees) at 10 MPH (9 knots; 4.6 m/s)
Visibility: 4 miles ( 6 km)
Ceiling: at least 12,000 feet AGL
Clouds: scattered clouds at 1000 feet AGL
scattered clouds at 1800 feet AGL
Weather: no significant weather observed at this time

METAR text: VOBL 231030Z 27011KT 6000 SCT010 SCT018 27/20 Q1010 NOSIG
Conditions at: VOBL (BENGALURU , IN) observed 1030 UTC 23 October 2019
Temperature: 27.0°C (81°F)
Dewpoint: 20.0°C (68°F) [RH = 66%]
Pressure (altimeter): 29.82 inches Hg (1010.0 mb)
Winds: from the W (270 degrees) at 13 MPH (11 knots; 5.7 m/s)
Visibility: 4 miles ( 6 km)
Ceiling: at least 12,000 feet AGL
Clouds: scattered clouds at 1000 feet AGL
scattered clouds at 1800 feet AGL
Weather: no significant weather observed at this time

METAR text: VOBL 231000Z 28011KT 6000 SCT015 SCT020 27/21 Q1010 NOSIG
Conditions at: VOBL (BENGALURU , IN) observed 1000 UTC 23 October 2019
Temperature: 27.0°C (81°F)
Dewpoint: 21.0°C (70°F) [RH = 70%]
Pressure (altimeter): 29.82 inches Hg (1010.0 mb)
Winds: from the W (280 degrees) at 13 MPH (11 knots; 5.7 m/s)
Visibility: 4 miles ( 6 km)
Ceiling: at least 12,000 feet AGL
Clouds: scattered clouds at 1500 feet AGL
scattered clouds at 2000 feet AGL
Weather: no significant weather observed at this time

METAR text: VOBL 230930Z 28009KT 6000 SCT015 SCT020 27/20 Q1010 NOSIG
Conditions at: VOBL (BENGALURU , IN) observed 0930 UTC 23 October 2019
Temperature: 27.0°C (81°F)
Dewpoint: 20.0°C (68°F) [RH = 66%]
Pressure (altimeter): 29.82 inches Hg (1010.0 mb)
Winds: from the W (280 degrees) at 10 MPH (9 knots; 4.6 m/s)
Visibility: 4 miles ( 6 km)
Ceiling: at least 12,000 feet AGL
Clouds: scattered clouds at 1500 feet AGL
scattered clouds at 2000 feet AGL
Weather: no significant weather observed at this time

METAR text: VOBL 230900Z 28012KT 250V310 6000 SCT015 SCT020 28/20 Q1011 NOSIG
Conditions at: VOBL (BENGALURU , IN) observed 0900 UTC 23 October 2019
Temperature: 28.0°C (82°F)
Dewpoint: 20.0°C (68°F) [RH = 62%]
Pressure (altimeter): 29.85 inches Hg (1011.0 mb)
Winds: from the W (280 degrees) at 14 MPH (12 knots; 6.2 m/s)
Visibility: 4 miles ( 6 km)
Ceiling: at least 12,000 feet AGL
Clouds: scattered clouds at 1500 feet AGL
scattered clouds at 2000 feet AGL
Weather: no significant weather observed at this time

METAR text: VOBL 230830Z 28011KT 6000 FEW012 SCT020 BKN080 26/21 Q1011 NOSIG
Conditions at: VOBL (BENGALURU , IN) observed 0830 UTC 23 October 2019
Temperature: 26.0°C (79°F)
Dewpoint: 21.0°C (70°F) [RH = 74%]
Pressure (altimeter): 29.85 inches Hg (1011.0 mb)
Winds: from the W (280 degrees) at 13 MPH (11 knots; 5.7 m/s)
Visibility: 4 miles ( 6 km)
Ceiling: 8000 feet AGL
Clouds: few clouds at 1200 feet AGL
scattered clouds at 2000 feet AGL
broken clouds at 8000 feet AGL
Weather: no significant weather observed at this time

METAR text: VOBL 230800Z 27013KT 6000 FEW012 SCT020 BKN080 27/20 Q1011 NOSIG
Conditions at: VOBL (BENGALURU , IN) observed 0800 UTC 23 October 2019
Temperature: 27.0°C (81°F)
Dewpoint: 20.0°C (68°F) [RH = 66%]
Pressure (altimeter): 29.85 inches Hg (1011.0 mb)
Winds: from the W (270 degrees) at 15 MPH (13 knots; 6.7 m/s)
Visibility: 4 miles ( 6 km)
Ceiling: 8000 feet AGL
Clouds: few clouds at 1200 feet AGL
scattered clouds at 2000 feet AGL
broken clouds at 8000 feet AGL
Weather: no significant weather observed at this time

METAR text: VOBL 230730Z 27014KT 6000 FEW012 SCT020 BKN080 26/20 Q1012 NOSIG
Conditions at: VOBL (BENGALURU , IN) observed 0730 UTC 23 October 2019
Temperature: 26.0°C (79°F)
Dewpoint: 20.0°C (68°F) [RH = 70%]
Pressure (altimeter): 29.88 inches Hg (1012.0 mb)
Winds: from the W (270 degrees) at 16 MPH (14 knots; 7.2 m/s)
Visibility: 4 miles ( 6 km)
Ceiling: 8000 feet AGL
Clouds: few clouds at 1200 feet AGL
scattered clouds at 2000 feet AGL
broken clouds at 8000 feet AGL
Weather: no significant weather observed at this time

METAR text: VOBL 230700Z 27012KT 6000 SCT012 SCT020 26/22 Q1013 NOSIG
Conditions at: VOBL (BENGALURU , IN) observed 0700 UTC 23 October 2019
Temperature: 26.0°C (79°F)
Dewpoint: 22.0°C (72°F) [RH = 79%]
Pressure (altimeter): 29.91 inches Hg (1013.0 mb)
Winds: from the W (270 degrees) at 14 MPH (12 knots; 6.2 m/s)
Visibility: 4 miles ( 6 km)
Ceiling: at least 12,000 feet AGL
Clouds: scattered clouds at 1200 feet AGL
scattered clouds at 2000 feet AGL
Weather: no significant weather observed at this time

METAR text: VOBL 230630Z 26012KT 6000 SCT012 SCT020 26/21 Q1013 NOSIG
Conditions at: VOBL (BENGALURU , IN) observed 0630 UTC 23 October 2019
Temperature: 26.0°C (79°F)
Dewpoint: 21.0°C (70°F) [RH = 74%]
Pressure (altimeter): 29.91 inches Hg (1013.0 mb)
Winds: from the W (260 degrees) at 14 MPH (12 knots; 6.2 m/s)
Visibility: 4 miles ( 6 km)
Ceiling: at least 12,000 feet AGL
Clouds: scattered clouds at 1200 feet AGL
scattered clouds at 2000 feet AGL
Weather: no significant weather observed at this time

METAR text: VOBL 230600Z 27011KT 6000 SCT012 26/21 Q1014 NOSIG
Conditions at: VOBL (BENGALURU , IN) observed 0600 UTC 23 October 2019
Temperature: 26.0°C (79°F)
Dewpoint: 21.0°C (70°F) [RH = 74%]
Pressure (altimeter): 29.94 inches Hg (1014.0 mb)
Winds: from the W (270 degrees) at 13 MPH (11 knots; 5.7 m/s)
Visibility: 4 miles ( 6 km)
Ceiling: at least 12,000 feet AGL
Clouds: scattered clouds at 1200 feet AGL
Weather: no significant weather observed at this time

METAR text: VOBL 230530Z 28009KT 240V310 6000 SCT012 25/22 Q1014 NOSIG
Conditions at: VOBL (BENGALURU , IN) observed 0530 UTC 23 October 2019
Temperature: 25.0°C (77°F)
Dewpoint: 22.0°C (72°F) [RH = 83%]
Pressure (altimeter): 29.94 inches Hg (1014.0 mb)
Winds: from the W (280 degrees) at 10 MPH (9 knots; 4.6 m/s)
Visibility: 4 miles ( 6 km)
Ceiling: at least 12,000 feet AGL
Clouds: scattered clouds at 1200 feet AGL
Weather: no significant weather observed at this time

METAR text: VOBL 230500Z 27010KT 6000 SCT012 25/22 Q1015 NOSIG
Conditions at: VOBL (BENGALURU , IN) observed 0500 UTC 23 October 2019
Temperature: 25.0°C (77°F)
Dewpoint: 22.0°C (72°F) [RH = 83%]
Pressure (altimeter): 29.97 inches Hg (1015.0 mb)
Winds: from the W (270 degrees) at 12 MPH (10 knots; 5.1 m/s)
Visibility: 4 miles ( 6 km)
Ceiling: at least 12,000 feet AGL
Clouds: scattered clouds at 1200 feet AGL
Weather: no significant weather observed at this time

METAR text: VOBL 230430Z 27010KT 6000 SCT012 24/22 Q1015 NOSIG
Conditions at: VOBL (BENGALURU , IN) observed 0430 UTC 23 October 2019
Temperature: 24.0°C (75°F)
Dewpoint: 22.0°C (72°F) [RH = 89%]
Pressure (altimeter): 29.97 inches Hg (1015.0 mb)
Winds: from the W (270 degrees) at 12 MPH (10 knots; 5.1 m/s)
Visibility: 4 miles ( 6 km)
Ceiling: at least 12,000 feet AGL
Clouds: scattered clouds at 1200 feet AGL
Weather: no significant weather observed at this time

METAR text: VOBL 230400Z 26011KT 6000 SCT012 23/22 Q1015 NOSIG
Conditions at: VOBL (BENGALURU , IN) observed 0400 UTC 23 October 2019
Temperature: 23.0°C (73°F)
Dewpoint: 22.0°C (72°F) [RH = 94%]
Pressure (altimeter): 29.97 inches Hg (1015.0 mb)
Winds: from the W (260 degrees) at 13 MPH (11 knots; 5.7 m/s)
Visibility: 4 miles ( 6 km)
Ceiling: at least 12,000 feet AGL
Clouds: scattered clouds at 1200 feet AGL
Weather: no significant weather observed at this time

METAR text: VOBL 230330Z 26011KT 6000 SCT012 BKN080 23/22 Q1015 NOSIG
Conditions at: VOBL (BENGALURU , IN) observed 0330 UTC 23 October 2019
Temperature: 23.0°C (73°F)
Dewpoint: 22.0°C (72°F) [RH = 94%]
Pressure (altimeter): 29.97 inches Hg (1015.0 mb)
Winds: from the W (260 degrees) at 13 MPH (11 knots; 5.7 m/s)
Visibility: 4 miles ( 6 km)
Ceiling: 8000 feet AGL
Clouds: scattered clouds at 1200 feet AGL
broken clouds at 8000 feet AGL
Weather: no significant weather observed at this time

METAR text: VOBL 230300Z 28007KT 240V310 6000 SCT012 BKN080 22/22 Q1015 NOSIG
Conditions at: VOBL (BENGALURU , IN) observed 0300 UTC 23 October 2019
Temperature: 22.0°C (72°F)
Dewpoint: 22.0°C (72°F) [RH = 100%]
Pressure (altimeter): 29.97 inches Hg (1015.0 mb)
Winds: from the W (280 degrees) at 8 MPH (7 knots; 3.6 m/s)
Visibility: 4 miles ( 6 km)
Ceiling: 8000 feet AGL
Clouds: scattered clouds at 1200 feet AGL
broken clouds at 8000 feet AGL
Weather: no significant weather observed at this time

METAR text: VOBL 230230Z 28006KT 4000 BR SCT010 SCT012 BKN080 21/21 Q1015 BECMG 6000
Conditions at: VOBL (BENGALURU , IN) observed 0230 UTC 23 October 2019
Temperature: 21.0°C (70°F)
Dewpoint: 21.0°C (70°F) [RH = 100%]
Pressure (altimeter): 29.97 inches Hg (1015.0 mb)
Winds: from the W (280 degrees) at 7 MPH (6 knots; 3.1 m/s)
Visibility: 2.49 miles (4.01 km)
Ceiling: 8000 feet AGL
Clouds: scattered clouds at 1000 feet AGL
scattered clouds at 1200 feet AGL
broken clouds at 8000 feet AGL
Weather: BR  (mist)

METAR text: VOBL 230200Z 30004KT 4000 BR SCT010 SCT012 BKN080 21/21 Q1014 NOSIG
Conditions at: VOBL (BENGALURU , IN) observed 0200 UTC 23 October 2019
Temperature: 21.0°C (70°F)
Dewpoint: 21.0°C (70°F) [RH = 100%]
Pressure (altimeter): 29.94 inches Hg (1014.0 mb)
Winds: from the WNW (300 degrees) at 5 MPH (4 knots; 2.1 m/s)
Visibility: 2.49 miles (4.01 km)
Ceiling: 8000 feet AGL
Clouds: scattered clouds at 1000 feet AGL
scattered clouds at 1200 feet AGL
broken clouds at 8000 feet AGL
Weather: BR  (mist)

METAR text: VOBL 230130Z VRB02KT 4000 BR SCT010 SCT012 BKN080 20/20 Q1014 NOSIG
Conditions at: VOBL (BENGALURU , IN) observed 0130 UTC 23 October 2019
Temperature: 20.0°C (68°F)
Dewpoint: 20.0°C (68°F) [RH = 100%]
Pressure (altimeter): 29.94 inches Hg (1014.0 mb)
Winds: variable direction winds at 2 MPH (2 knots; 1.0 m/s)
Visibility: 2.49 miles (4.01 km)
Ceiling: 8000 feet AGL
Clouds: scattered clouds at 1000 feet AGL
scattered clouds at 1200 feet AGL
broken clouds at 8000 feet AGL
Weather: BR  (mist)

METAR text: VOBL 230100Z 29005KT 4000 BR SCT010 SCT012 BKN080 20/20 Q1014 NOSIG
Conditions at: VOBL (BENGALURU , IN) observed 0100 UTC 23 October 2019
Temperature: 20.0°C (68°F)
Dewpoint: 20.0°C (68°F) [RH = 100%]
Pressure (altimeter): 29.94 inches Hg (1014.0 mb)
Winds: from the WNW (290 degrees) at 6 MPH (5 knots; 2.6 m/s)
Visibility: 2.49 miles (4.01 km)
Ceiling: 8000 feet AGL
Clouds: scattered clouds at 1000 feet AGL
scattered clouds at 1200 feet AGL
broken clouds at 8000 feet AGL
Weather: BR  (mist)

METAR text: VOBL 230030Z 28004KT 240V310 4000 BR SCT010 SCT012 20/20 Q1014 NOSIG
Conditions at: VOBL (BENGALURU , IN) observed 0030 UTC 23 October 2019
Temperature: 20.0°C (68°F)
Dewpoint: 20.0°C (68°F) [RH = 100%]
Pressure (altimeter): 29.94 inches Hg (1014.0 mb)
Winds: from the W (280 degrees) at 5 MPH (4 knots; 2.1 m/s)
Visibility: 2.49 miles (4.01 km)
Ceiling: at least 12,000 feet AGL
Clouds: scattered clouds at 1000 feet AGL
scattered clouds at 1200 feet AGL
Weather: BR  (mist)

METAR text: VOBL 230000Z 29004KT 4000 BR SCT010 SCT012 20/20 Q1013 NOSIG
Conditions at: VOBL (BENGALURU , IN) observed 0000 UTC 23 October 2019
Temperature: 20.0°C (68°F)
Dewpoint: 20.0°C (68°F) [RH = 100%]
Pressure (altimeter): 29.91 inches Hg (1013.0 mb)
Winds: from the WNW (290 degrees) at 5 MPH (4 knots; 2.1 m/s)
Visibility: 2.49 miles (4.01 km)
Ceiling: at least 12,000 feet AGL
Clouds: scattered clouds at 1000 feet AGL
scattered clouds at 1200 feet AGL
Weather: BR  (mist)

METAR text: VOBL 222330Z 28006KT 4000 BR SCT010 SCT012 20/20 Q1012 NOSIG
Conditions at: VOBL (BENGALURU , IN) observed 2330 UTC 22 October 2019
Temperature: 20.0°C (68°F)
Dewpoint: 20.0°C (68°F) [RH = 100%]
Pressure (altimeter): 29.88 inches Hg (1012.0 mb)
Winds: from the W (280 degrees) at 7 MPH (6 knots; 3.1 m/s)
Visibility: 2.49 miles (4.01 km)
Ceiling: at least 12,000 feet AGL
Clouds: scattered clouds at 1000 feet AGL
scattered clouds at 1200 feet AGL
Weather: BR  (mist)

METAR text: VOBL 222300Z 29004KT 4000 BR SCT010 SCT012 20/20 Q1012 NOSIG
Conditions at: VOBL (BENGALURU , IN) observed 2300 UTC 22 October 2019
Temperature: 20.0°C (68°F)
Dewpoint: 20.0°C (68°F) [RH = 100%]
Pressure (altimeter): 29.88 inches Hg (1012.0 mb)
Winds: from the WNW (290 degrees) at 5 MPH (4 knots; 2.1 m/s)
Visibility: 2.49 miles (4.01 km)
Ceiling: at least 12,000 feet AGL
Clouds: scattered clouds at 1000 feet AGL
scattered clouds at 1200 feet AGL
Weather: BR  (mist)

METAR text: VOBL 222230Z 28004KT 250V310 4000 BR SCT010 SCT012 20/20 Q1012 NOSIG
Conditions at: VOBL (BENGALURU , IN) observed 2230 UTC 22 October 2019
Temperature: 20.0°C (68°F)
Dewpoint: 20.0°C (68°F) [RH = 100%]
Pressure (altimeter): 29.88 inches Hg (1012.0 mb)
Winds: from the W (280 degrees) at 5 MPH (4 knots; 2.1 m/s)
Visibility: 2.49 miles (4.01 km)
Ceiling: at least 12,000 feet AGL
Clouds: scattered clouds at 1000 feet AGL
scattered clouds at 1200 feet AGL
Weather: BR  (mist)

METAR text: VOBL 222200Z 28004KT 230V320 4000 BR SCT010 SCT012 20/20 Q1012 NOSIG
Conditions at: VOBL (BENGALURU , IN) observed 2200 UTC 22 October 2019
Temperature: 20.0°C (68°F)
Dewpoint: 20.0°C (68°F) [RH = 100%]
Pressure (altimeter): 29.88 inches Hg (1012.0 mb)
Winds: from the W (280 degrees) at 5 MPH (4 knots; 2.1 m/s)
Visibility: 2.49 miles (4.01 km)
Ceiling: at least 12,000 feet AGL
Clouds: scattered clouds at 1000 feet AGL
scattered clouds at 1200 feet AGL
Weather: BR  (mist)

METAR text: VOBL 222130Z 27006KT 6000 SCT010 SCT012 20/20 Q1012 NOSIG
Conditions at: VOBL (BENGALURU , IN) observed 2130 UTC 22 October 2019
Temperature: 20.0°C (68°F)
Dewpoint: 20.0°C (68°F) [RH = 100%]
Pressure (altimeter): 29.88 inches Hg (1012.0 mb)
Winds: from the W (270 degrees) at 7 MPH (6 knots; 3.1 m/s)
Visibility: 4 miles ( 6 km)
Ceiling: at least 12,000 feet AGL
Clouds: scattered clouds at 1000 feet AGL
scattered clouds at 1200 feet AGL
Weather: no significant weather observed at this time

METAR text: VOBL 222100Z 28006KT 6000 SCT010 SCT012 20/20 Q1013 NOSIG
Conditions at: VOBL (BENGALURU , IN) observed 2100 UTC 22 October 2019
Temperature: 20.0°C (68°F)
Dewpoint: 20.0°C (68°F) [RH = 100%]
Pressure (altimeter): 29.91 inches Hg (1013.0 mb)
Winds: from the W (280 degrees) at 7 MPH (6 knots; 3.1 m/s)
Visibility: 4 miles ( 6 km)
Ceiling: at least 12,000 feet AGL
Clouds: scattered clouds at 1000 feet AGL
scattered clouds at 1200 feet AGL
Weather: no significant weather observed at this time

METAR text: VOBL 222030Z 29005KT 6000 SCT010 SCT012 20/20 Q1013 NOSIG
Conditions at: VOBL (BENGALURU , IN) observed 2030 UTC 22 October 2019
Temperature: 20.0°C (68°F)
Dewpoint: 20.0°C (68°F) [RH = 100%]
Pressure (altimeter): 29.91 inches Hg (1013.0 mb)
Winds: from the WNW (290 degrees) at 6 MPH (5 knots; 2.6 m/s)
Visibility: 4 miles ( 6 km)
Ceiling: at least 12,000 feet AGL
Clouds: scattered clouds at 1000 feet AGL
scattered clouds at 1200 feet AGL
Weather: no significant weather observed at this time

METAR text: VOBL 222000Z 28006KT 6000 SCT010 SCT012 20/20 Q1013 NOSIG
Conditions at: VOBL (BENGALURU , IN) observed 2000 UTC 22 October 2019
Temperature: 20.0°C (68°F)
Dewpoint: 20.0°C (68°F) [RH = 100%]
Pressure (altimeter): 29.91 inches Hg (1013.0 mb)
Winds: from the W (280 degrees) at 7 MPH (6 knots; 3.1 m/s)
Visibility: 4 miles ( 6 km)
Ceiling: at least 12,000 feet AGL
Clouds: scattered clouds at 1000 feet AGL
scattered clouds at 1200 feet AGL
Weather: no significant weather observed at this time

METAR text: VOBL 221930Z 29004KT 6000 RA SCT010 SCT012 20/20 Q1014 NOSIG
Conditions at: VOBL (BENGALURU , IN) observed 1930 UTC 22 October 2019
Temperature: 20.0°C (68°F)
Dewpoint: 20.0°C (68°F) [RH = 100%]
Pressure (altimeter): 29.94 inches Hg (1014.0 mb)
Winds: from the WNW (290 degrees) at 5 MPH (4 knots; 2.1 m/s)
Visibility: 4 miles ( 6 km)
Ceiling: at least 12,000 feet AGL
Clouds: scattered clouds at 1000 feet AGL
scattered clouds at 1200 feet AGL
Weather: RA  (moderate rain)

METAR text: VOBL 221900Z 28006KT 4000 RA SCT008 SCT012 20/20 Q1014 NOSIG
Conditions at: VOBL (BENGALURU , IN) observed 1900 UTC 22 October 2019
Temperature: 20.0°C (68°F)
Dewpoint: 20.0°C (68°F) [RH = 100%]
Pressure (altimeter): 29.94 inches Hg (1014.0 mb)
Winds: from the W (280 degrees) at 7 MPH (6 knots; 3.1 m/s)
Visibility: 2.49 miles (4.01 km)
Ceiling: at least 12,000 feet AGL
Clouds: scattered clouds at 800 feet AGL
scattered clouds at 1200 feet AGL
Weather: RA  (moderate rain)

METAR text: VOBL 221830Z 28005KT 4000 RA SCT008 SCT012 21/21 Q1014 NOSIG
Conditions at: VOBL (BENGALURU , IN) observed 1830 UTC 22 October 2019
Temperature: 21.0°C (70°F)
Dewpoint: 21.0°C (70°F) [RH = 100%]
Pressure (altimeter): 29.94 inches Hg (1014.0 mb)
Winds: from the W (280 degrees) at 6 MPH (5 knots; 2.6 m/s)
Visibility: 2.49 miles (4.01 km)
Ceiling: at least 12,000 feet AGL
Clouds: scattered clouds at 800 feet AGL
scattered clouds at 1200 feet AGL
Weather: RA  (moderate rain)

METAR text: VOBL 221800Z 29008KT 6000 DZ SCT010 SCT080 21/21 Q1015 NOSIG
Conditions at: VOBL (BENGALURU , IN) observed 1800 UTC 22 October 2019
Temperature: 21.0°C (70°F)
Dewpoint: 21.0°C (70°F) [RH = 100%]
Pressure (altimeter): 29.97 inches Hg (1015.0 mb)
Winds: from the WNW (290 degrees) at 9 MPH (8 knots; 4.1 m/s)
Visibility: 4 miles ( 6 km)
Ceiling: at least 12,000 feet AGL
Clouds: scattered clouds at 1000 feet AGL
scattered clouds at 8000 feet AGL
Weather: DZ  (moderate drizzle)

METAR text: VOBL 221730Z 28008KT 6000 DZ SCT010 SCT080 21/21 Q1015 NOSIG
Conditions at: VOBL (BENGALURU , IN) observed 1730 UTC 22 October 2019
Temperature: 21.0°C (70°F)
Dewpoint: 21.0°C (70°F) [RH = 100%]
Pressure (altimeter): 29.97 inches Hg (1015.0 mb)
Winds: from the W (280 degrees) at 9 MPH (8 knots; 4.1 m/s)
Visibility: 4 miles ( 6 km)
Ceiling: at least 12,000 feet AGL
Clouds: scattered clouds at 1000 feet AGL
scattered clouds at 8000 feet AGL
Weather: DZ  (moderate drizzle)

METAR text: VOBL 221700Z 29008KT 6000 SCT012 SCT080 21/21 Q1015 NOSIG
Conditions at: VOBL (BENGALURU , IN) observed 1700 UTC 22 October 2019
Temperature: 21.0°C (70°F)
Dewpoint: 21.0°C (70°F) [RH = 100%]
Pressure (altimeter): 29.97 inches Hg (1015.0 mb)
Winds: from the WNW (290 degrees) at 9 MPH (8 knots; 4.1 m/s)
Visibility: 4 miles ( 6 km)
Ceiling: at least 12,000 feet AGL
Clouds: scattered clouds at 1200 feet AGL
scattered clouds at 8000 feet AGL
Weather: no significant weather observed at this time

METAR text: VOBL 221630Z 28007KT 6000 SCT012 FEW025CB SCT080 21/21 Q1016 NOSIG
Conditions at: VOBL (BENGALURU , IN) observed 1630 UTC 22 October 2019
Temperature: 21.0°C (70°F)
Dewpoint: 21.0°C (70°F) [RH = 100%]
Pressure (altimeter): 30.00 inches Hg (1016.0 mb)
Winds: from the W (280 degrees) at 8 MPH (7 knots; 3.6 m/s)
Visibility: 4 miles ( 6 km)
Ceiling: at least 12,000 feet AGL
Clouds: scattered clouds at 1200 feet AGL
few clouds at 2500 feet AGL
scattered clouds at 8000 feet AGL
Weather: no significant weather observed at this time

METAR text: VOBL 221600Z 28006KT 6000 SCT012 FEW025CB SCT080 21/21 Q1015 NOSIG
Conditions at: VOBL (BENGALURU , IN) observed 1600 UTC 22 October 2019
Temperature: 21.0°C (70°F)
Dewpoint: 21.0°C (70°F) [RH = 100%]
Pressure (altimeter): 29.97 inches Hg (1015.0 mb)
Winds: from the W (280 degrees) at 7 MPH (6 knots; 3.1 m/s)
Visibility: 4 miles ( 6 km)
Ceiling: at least 12,000 feet AGL
Clouds: scattered clouds at 1200 feet AGL
few clouds at 2500 feet AGL
scattered clouds at 8000 feet AGL
Weather: no significant weather observed at this time

METAR text: VOBL 221530Z 29004KT 6000 SCT012 FEW025CB SCT080 21/21 Q1015 NOSIG
Conditions at: VOBL (BENGALURU , IN) observed 1530 UTC 22 October 2019
Temperature: 21.0°C (70°F)
Dewpoint: 21.0°C (70°F) [RH = 100%]
Pressure (altimeter): 29.97 inches Hg (1015.0 mb)
Winds: from the WNW (290 degrees) at 5 MPH (4 knots; 2.1 m/s)
Visibility: 4 miles ( 6 km)
Ceiling: at least 12,000 feet AGL
Clouds: scattered clouds at 1200 feet AGL
few clouds at 2500 feet AGL
scattered clouds at 8000 feet AGL
Weather: no significant weather observed at this time

METAR text: VOBL 221500Z 28005KT 6000 SCT012 FEW025CB SCT080 22/22 Q1015 NOSIG
Conditions at: VOBL (BENGALURU , IN) observed 1500 UTC 22 October 2019
Temperature: 22.0°C (72°F)
Dewpoint: 22.0°C (72°F) [RH = 100%]
Pressure (altimeter): 29.97 inches Hg (1015.0 mb)
Winds: from the W (280 degrees) at 6 MPH (5 knots; 2.6 m/s)
Visibility: 4 miles ( 6 km)
Ceiling: at least 12,000 feet AGL
Clouds: scattered clouds at 1200 feet AGL
few clouds at 2500 feet AGL
scattered clouds at 8000 feet AGL
Weather: no significant weather observed at this time

METAR text: VOBL 221430Z 27006KT 6000 SCT012 FEW025CB SCT080 22/22 Q1014 NOSIG
Conditions at: VOBL (BENGALURU , IN) observed 1430 UTC 22 October 2019
Temperature: 22.0°C (72°F)
Dewpoint: 22.0°C (72°F) [RH = 100%]
Pressure (altimeter): 29.94 inches Hg (1014.0 mb)
Winds: from the W (270 degrees) at 7 MPH (6 knots; 3.1 m/s)
Visibility: 4 miles ( 6 km)
Ceiling: at least 12,000 feet AGL
Clouds: scattered clouds at 1200 feet AGL
few clouds at 2500 feet AGL
scattered clouds at 8000 feet AGL
Weather: no significant weather observed at this time

METAR text: VOBL 221400Z 29004KT 6000 SCT012 FEW025CB SCT080 22/22 Q1014 NOSIG
Conditions at: VOBL (BENGALURU , IN) observed 1400 UTC 22 October 2019
Temperature: 22.0°C (72°F)
Dewpoint: 22.0°C (72°F) [RH = 100%]
Pressure (altimeter): 29.94 inches Hg (1014.0 mb)
Winds: from the WNW (290 degrees) at 5 MPH (4 knots; 2.1 m/s)
Visibility: 4 miles ( 6 km)
Ceiling: at least 12,000 feet AGL
Clouds: scattered clouds at 1200 feet AGL
few clouds at 2500 feet AGL
scattered clouds at 8000 feet AGL
Weather: no significant weather observed at this time

METAR text: VOBL 221330Z 27005KT 240V300 6000 SCT012 FEW025CB SCT080 22/22 Q1013 NOSIG
Conditions at: VOBL (BENGALURU , IN) observed 1330 UTC 22 October 2019
Temperature: 22.0°C (72°F)
Dewpoint: 22.0°C (72°F) [RH = 100%]
Pressure (altimeter): 29.91 inches Hg (1013.0 mb)
Winds: from the W (270 degrees) at 6 MPH (5 knots; 2.6 m/s)
Visibility: 4 miles ( 6 km)
Ceiling: at least 12,000 feet AGL
Clouds: scattered clouds at 1200 feet AGL
few clouds at 2500 feet AGL
scattered clouds at 8000 feet AGL
Weather: no significant weather observed at this time

METAR text: VOBL 221300Z VRB01KT 6000 SCT012 SCT018 FEW025CB BKN080 22/22 Q1013 NOSIG
Conditions at: VOBL (BENGALURU , IN) observed 1300 UTC 22 October 2019
Temperature: 22.0°C (72°F)
Dewpoint: 22.0°C (72°F) [RH = 100%]
Pressure (altimeter): 29.91 inches Hg (1013.0 mb)
Winds: variable direction winds at 1 MPH (1 knots; 0.5 m/s)
Visibility: 4 miles ( 6 km)
Ceiling: 8000 feet AGL
Clouds: scattered clouds at 1200 feet AGL
scattered clouds at 1800 feet AGL
few clouds at 2500 feet AGL
broken clouds at 8000 feet AGL
Weather: no significant weather observed at this time

METAR text: VOBL 221230Z VRB03KT 6000 SCT012 SCT018 FEW025CB BKN080 22/22 Q1013 NOSIG
Conditions at: VOBL (BENGALURU , IN) observed 1230 UTC 22 October 2019
Temperature: 22.0°C (72°F)
Dewpoint: 22.0°C (72°F) [RH = 100%]
Pressure (altimeter): 29.91 inches Hg (1013.0 mb)
Winds: variable direction winds at 3 MPH (3 knots; 1.5 m/s)
Visibility: 4 miles ( 6 km)
Ceiling: 8000 feet AGL
Clouds: scattered clouds at 1200 feet AGL
scattered clouds at 1800 feet AGL
few clouds at 2500 feet AGL
broken clouds at 8000 feet AGL
Weather: no significant weather observed at this time

METAR text: VOBL 221200Z 07004KT 6000 SCT012 SCT018 FEW025CB BKN080 22/22 Q1012 NOSIG
Conditions at: VOBL (BENGALURU , IN) observed 1200 UTC 22 October 2019
Temperature: 22.0°C (72°F)
Dewpoint: 22.0°C (72°F) [RH = 100%]
Pressure (altimeter): 29.88 inches Hg (1012.0 mb)
Winds: from the ENE (70 degrees) at 5 MPH (4 knots; 2.1 m/s)
Visibility: 4 miles ( 6 km)
Ceiling: 8000 feet AGL
Clouds: scattered clouds at 1200 feet AGL
scattered clouds at 1800 feet AGL
few clouds at 2500 feet AGL
broken clouds at 8000 feet AGL
Weather: no significant weather observed at this time

Forecast for: VOBL (BENGALURU , IN)
Text: TAF VOBL 232300Z 2400/2506 27005KT 6000 SCT012 SCT080
Forecast period: 0000 UTC 24 October 2019 to 0600 UTC 25 October 2019
Forecast type: FROM: standard forecast or significant change
Winds: from the W (270 degrees) at 6 MPH (5 knots; 2.6 m/s)
Visibility: 4 miles (6 km)
Ceiling: at least 12,000 feet AGL
Clouds: scattered clouds at 1200 feet AGL
scattered clouds at 8000 feet AGL
Weather: no significant weather forecast for this period
Text: TEMPO 2400/2403 3000 BR SCT008 SCT012 BKN080
Forecast period: 0000 to 0300 UTC 24 October 2019
Forecast type: TEMPORARY: The following changes expected for less than half the time period
Visibility: 1.86 miles (2.99 km)
Ceiling: 8000 feet AGL
Clouds: scattered clouds at 800 feet AGL
scattered clouds at 1200 feet AGL
broken clouds at 8000 feet AGL
Weather: BR  (mist)
Text: TEMPO 2409/2415 4000 TSRA RA SCT012 SCT018 FEW025CB
Forecast period: 0900 to 1500 UTC 24 October 2019
Forecast type: TEMPORARY: The following changes expected for less than half the time period
Visibility: 2.49 miles (4.01 km)
Ceiling: at least 12,000 feet AGL
Clouds: scattered clouds at 1200 feet AGL
scattered clouds at 1800 feet AGL
few clouds at 2500 feet AGL
Weather: TSRA RA  (rain associated with thunderstorm(s), moderate rain)
Text: TEMPO 2500/2503 3000 BR SCT008 SCT012
Forecast period: 0000 to 0300 UTC 25 October 2019
Forecast type: TEMPORARY: The following changes expected for less than half the time period
Visibility: 1.86 miles (2.99 km)
Ceiling: at least 12,000 feet AGL
Clouds: scattered clouds at 800 feet AGL
scattered clouds at 1200 feet AGL
Weather: BR  (mist)